Terminal Aerodrome Forecast
Issued by NWS

Current Version | Previous Version | Graphics & Text | Print | Product List | Glossary On
Versions: 1 2 3 4 5 6 7 8 9 10 11 12 13 14 15 16 17 18 19 20
000
FTUS41 KPBZ 202300
TAFHLG
TAF
KHLG 202324Z 2100/2124 VRB03KT P6SM BKN060
     FM210700 VRB03KT 4SM BR SCT040
     FM211000 00000KT 1/2SM FG VV001
     FM211300 16005KT P6SM SCT040=

USA.gov is the U.S. government's official web portal to all federal, state and local government web resources and services.